Aérodrome :
LOGIN :

S'inscrire | Disclaimer

   EN    FR    IT 

 










Légende :    VFR   VFR Marginal   IFR   IFR Intensif   IFR Très Intensif
Visi : 
Plafond : 
>= 8 km
>= 3000ft
5 à 8 km
1000 à 3000 ft
1500m à 5 km
500 à 1000 ft
800 à 1500m
200 à 500 ft
< 800m
< 200 ft
Symboles :   Orages  Brouillard  Fortes neiges  Fortes précipitations  Vent > 20 kt
SIGMETs :   Divers  Orages  Givrage  Turbulence  Onde Orograph.  Cendres Volcan.







- Altitude de l'aérodrome : 459 ft
- Code IATA : CER
- Voir les cartes d'approche


LFRC - Cherbourg / Maupertus

DERNIER METAR :
  • 162300Z AUTO 19016KT 9999 FEW020 SCT038 BKN064 18/14 Q1015

METARs EXPIRÉS :
  • 162230Z AUTO 20013KT 9999 SCT026 SCT040 BKN120 18/14 Q1016
  • 162200Z AUTO 19011KT 9999 FEW042 SCT100 BKN180 18/14 Q1016
  • 162130Z AUTO 19009KT CAVOK 18/14 Q1016
  • 162100Z AUTO 16006KT 130V190 CAVOK 17/14 Q1017
  • 162030Z AUTO 15006KT CAVOK 17/15 Q1017

TAF TAF LFRC
Valide du 16 à 15h jusqu'au 17 à 00h UTC


161400Z 1615/1624 36006KT 9999 BKN035
BECMG 1616/1618 13008KT
BECMG 1619/1622 20010KT
BECMG 1622/1624 5000 RA BKN015
Pas de NOTAMs connus pour ce terrain.



MET'MAP, la Météo Aéronautique d'un coup d'oeil ! - Copyright ORBIFLY Décembre 2007 - Disclaimer

ORBIFLY MET'MAP TEAM :

Programmation & Développement : Alexandra Zaïnal
Conception & Développement : Baudouin d'Aumeries
Co-Programmation & Développement : Marc-Olivier Méhu
Soutien technique & logistique : Manuel Goepfert

Contact : metmap@orbifly.com




SOURCES & CREDITS :

   NOAA